Mosher, South Dakota
Current Conditions -  °F | °C
As of 10:53 AM on Sunday 23 Nov 2014 (Local Time) from KICR Reporting Station
Clear Clear  
Wind Chill: 35°   Ceiling: Unl
Heat Index: 43°   Visibility: 10mi
Dew Point: 29°   Wind: 17mph
Humidity: 58%   Direction: 300°WNW
Pressure: 29.67"   Gusts: 28mph
Location:  43.2923°N, 99.8934°W
Report Text: KICR 231653Z AUTO 30015G24KT 10SM CLR 06/M02 A2967 RMK AO2 SLP054 T00611017
Loading
Personal Weather Stations






























Interactive Weather Map New forecast layout! Learn more

10-Day Weather Forecast

Advertisements
Track Severe Weather on mobile